Time;durP1;ratioP1;P1;durP2;ratioP2;P2;SDS_P1;SDS_P2;PMS_P1;PMS_P2;Temp;Humidity;BMP_temperature;BMP_pressure;BME280_temperature;BME280_humidity;BME280_pressure;Samples;Min_cycle;Max_cycle;Signal;HPM_P1;HPM_P2
2022/06/29 00:01:24;;;;;;;5.43;2.65;;;17.00;99.90;;;;;;4995735;28;20186;-84
2022/06/29 00:03:51;;;;;;;6.03;2.83;;;;;;;;;;4993436;28;20117;-84
2022/06/29 00:06:18;;;;;;;4.43;2.30;;;16.90;99.90;;;;;;4995052;28;20055;-84
2022/06/29 00:08:46;;;;;;;3.55;2.30;;;;;;;;;;4994770;28;20050;-84
2022/06/29 00:11:12;;;;;;;7.78;2.72;;;;;;;;;;4994926;28;20054;-83
2022/06/29 00:13:38;;;;;;;5.60;2.50;;;;;;;;;;4995120;28;20145;-84
2022/06/29 00:16:04;;;;;;;5.07;2.50;;;;;;;;;;4994287;28;20082;-84
2022/06/29 00:18:30;;;;;;;3.78;2.50;;;;;;;;;;4994029;28;20054;-84
2022/06/29 00:20:56;;;;;;;4.22;2.42;;;;;;;;;;4994985;28;20050;-84
2022/06/29 00:23:22;;;;;;;6.40;2.65;;;;;;;;;;5009914;28;20493;-84
2022/06/29 00:25:48;;;;;;;6.30;2.65;;;;;;;;;;4994284;28;20101;-84
2022/06/29 00:28:14;;;;;;;5.32;2.60;;;;;;;;;;4997247;28;20050;-84
2022/06/29 00:30:40;;;;;;;10.20;2.88;;;;;;;;;;4998984;28;20370;-84
2022/06/29 00:33:06;;;;;;;5.80;2.42;;;;;;;;;;4997246;28;20046;-84
2022/06/29 00:35:32;;;;;;;4.85;2.70;;;;;;;;;;5017747;28;20053;-84
2022/06/29 00:37:58;;;;;;;6.03;2.55;;;;;;;;;;5003781;28;20493;-84
2022/06/29 00:40:24;;;;;;;6.30;2.80;;;;;;;;;;5005164;28;20114;-85
2022/06/29 00:42:50;;;;;;;5.53;2.90;;;;;;;;;;5018122;28;20136;-84
2022/06/29 00:45:16;;;;;;;6.60;2.63;;;;;;;;;;5002400;28;20050;-84
2022/06/29 00:47:42;;;;;;;6.40;2.80;;;;;;;;;;4998626;28;20519;-84
2022/06/29 00:50:09;;;;;;;7.90;3.10;;;16.50;99.90;;;;;;4998222;28;20493;-85
2022/06/29 00:52:37;;;;;;;4.00;2.63;;;16.50;99.90;;;;;;4980019;28;20062;-85
2022/06/29 00:55:10;;;;;;;12.27;3.17;;;16.50;99.90;;;;;;4998482;28;20057;-84
2022/06/29 00:57:40;;;;;;;6.32;3.20;;;16.50;99.90;;;;;;4998605;28;20057;-85
2022/06/29 01:02:36;;;;;;;6.78;2.92;;;16.40;99.90;;;;;;5117597;22;20060;-54
2022/06/29 01:05:03;;;;;;;5.40;2.95;;;16.50;99.90;;;;;;5077892;28;20113;-54
2022/06/29 01:07:32;;;;;;;7.38;3.25;;;16.50;99.90;;;;;;5094725;28;20052;-54
2022/06/29 01:09:58;;;;;;;6.57;3.28;;;16.00;99.90;;;;;;5085747;28;20144;-55
2022/06/29 01:12:24;;;;;;;5.93;3.22;;;16.50;99.90;;;;;;5074114;28;20123;-55
2022/06/29 01:14:51;;;;;;;9.20;3.13;;;16.30;99.90;;;;;;5074024;28;20044;-55
2022/06/29 01:17:18;;;;;;;6.90;3.30;;;16.50;99.90;;;;;;5074771;28;20413;-54
2022/06/29 01:19:44;;;;;;;8.13;3.20;;;;;;;;;;5093445;28;20078;-55
2022/06/29 01:22:19;;;;;;;7.43;3.30;;;16.30;99.90;;;;;;5094269;28;20051;-55
2022/06/29 01:24:46;;;;;;;10.43;3.40;;;16.40;99.90;;;;;;5094404;28;20055;-55
2022/06/29 01:27:13;;;;;;;7.53;3.17;;;16.20;99.90;;;;;;5094328;28;20048;-54
2022/06/29 01:29:39;;;;;;;8.38;3.22;;;16.20;99.90;;;;;;5094429;28;20051;-53
2022/06/29 01:32:06;;;;;;;10.73;3.20;;;16.10;99.90;;;;;;5094171;28;20048;-54
2022/06/29 01:34:32;;;;;;;7.45;3.50;;;15.80;99.90;;;;;;5094038;28;20048;-53
2022/06/29 01:36:59;;;;;;;4.80;3.00;;;16.20;99.90;;;;;;5073939;28;20048;-54
2022/06/29 01:39:26;;;;;;;5.93;3.40;;;16.30;99.90;;;;;;5072994;28;20296;-54
2022/06/29 01:41:52;;;;;;;5.32;3.20;;;16.30;99.90;;;;;;5073486;28;20403;-54
2022/06/29 01:44:18;;;;;;;7.78;3.10;;;16.20;99.90;;;;;;5073524;28;20036;-54
2022/06/29 01:46:44;;;;;;;5.90;3.25;;;16.50;99.90;;;;;;5073715;28;20109;-55
2022/06/29 01:49:09;;;;;;;7.28;3.30;;;16.20;99.90;;;;;;5073710;28;20439;-54
2022/06/29 01:51:35;;;;;;;7.13;3.50;;;16.10;99.90;;;;;;5055726;28;20053;-53
2022/06/29 01:54:01;;;;;;;8.57;3.60;;;16.20;99.90;;;;;;5073372;28;20522;-52
2022/06/29 01:56:27;;;;;;;8.32;3.50;;;15.90;99.90;;;;;;5073699;28;20036;-53
2022/06/29 01:58:52;;;;;;;8.52;3.50;;;16.00;99.90;;;;;;5073504;28;20054;-52
2022/06/29 02:01:18;;;;;;;5.25;3.22;;;15.90;99.90;;;;;;5073461;28;20044;-54
2022/06/29 02:03:44;;;;;;;7.10;3.33;;;15.80;99.90;;;;;;5073100;28;20083;-54
2022/06/29 02:06:10;;;;;;;8.43;3.40;;;16.00;99.90;;;;;;5073148;28;20048;-52
2022/06/29 02:08:36;;;;;;;6.22;3.00;;;16.20;99.90;;;;;;5073435;28;20119;-55
2022/06/29 02:11:02;;;;;;;10.35;3.60;;;15.90;99.90;;;;;;5092767;28;20633;-56
2022/06/29 02:13:28;;;;;;;6.07;3.45;;;15.90;99.90;;;;;;5093480;28;20049;-56
2022/06/29 02:15:54;;;;;;;13.55;3.60;;;16.00;99.90;;;;;;5093412;28;20059;-56
2022/06/29 02:18:19;;;;;;;8.27;3.47;;;16.00;99.90;;;;;;5093369;28;20487;-56
2022/06/29 02:20:45;;;;;;;7.28;3.88;;;15.80;99.90;;;;;;5093144;28;20109;-56
2022/06/29 02:23:11;;;;;;;6.97;3.65;;;15.90;99.90;;;;;;5093110;28;20058;-55
2022/06/29 02:25:37;;;;;;;5.50;3.35;;;15.50;99.90;;;;;;5092925;28;20051;-55
2022/06/29 02:28:03;;;;;;;7.63;3.85;;;15.70;99.90;;;;;;5093483;28;20040;-56
2022/06/29 02:35:57;;;;;;;6.30;3.63;;;16.00;99.90;;;;;;5092822;28;20406;-56
2022/06/29 02:38:23;;;;;;;8.07;3.42;;;15.70;99.90;;;;;;5093208;28;20044;-56
2022/06/29 02:40:49;;;;;;;11.65;3.97;;;15.80;99.90;;;;;;5093112;28;20044;-56
2022/06/29 02:43:15;;;;;;;12.07;3.60;;;15.50;99.90;;;;;;5092850;28;20433;-56
2022/06/29 02:45:40;;;;;;;7.40;3.60;;;16.50;99.90;;;;;;5092601;28;20487;-55
2022/06/29 02:48:07;;;;;;;6.45;3.72;;;16.20;99.90;;;;;;5092623;28;20064;-56
2022/06/29 02:50:32;;;;;;;7.38;3.95;;;15.80;99.90;;;;;;5092039;28;20044;-56
2022/06/29 02:52:58;;;;;;;7.07;3.90;;;16.00;99.90;;;;;;5092028;28;20044;-56
2022/06/29 02:55:24;;;;;;;7.28;3.80;;;15.70;99.90;;;;;;5092467;28;20048;-56
2022/06/29 02:57:49;;;;;;;6.88;3.80;;;15.80;99.90;;;;;;5092568;28;20083;-56
2022/06/29 03:00:16;;;;;;;6.55;3.88;;;15.70;99.90;;;;;;5074563;28;20197;-56
2022/06/29 03:02:41;;;;;;;5.47;3.70;;;15.80;99.90;;;;;;5092095;28;20502;-55
2022/06/29 03:05:08;;;;;;;9.02;3.95;;;16.00;99.90;;;;;;5091903;28;20066;-55
2022/06/29 03:07:34;;;;;;;7.93;3.90;;;15.70;99.90;;;;;;5092377;28;20048;-55
2022/06/29 03:09:59;;;;;;;5.28;3.90;;;15.70;99.90;;;;;;5092571;28;20059;-55
2022/06/29 03:12:25;;;;;;;8.43;4.10;;;15.60;99.90;;;;;;5092150;28;20048;-56
2022/06/29 03:14:51;;;;;;;10.98;4.20;;;15.70;99.90;;;;;;5092364;28;20040;-57
2022/06/29 03:17:17;;;;;;;8.23;4.20;;;15.10;99.90;;;;;;5092035;28;20142;-57
2022/06/29 03:19:42;;;;;;;7.55;4.10;;;15.10;99.90;;;;;;5073662;28;20126;-57
2022/06/29 03:22:08;;;;;;;6.15;3.90;;;15.70;99.90;;;;;;5092296;28;20044;-55
2022/06/29 03:24:34;;;;;;;7.72;4.15;;;15.60;99.90;;;;;;5092205;28;20044;-55
2022/06/29 03:26:59;;;;;;;6.30;4.35;;;15.90;99.90;;;;;;5073776;28;20071;-54
2022/06/29 03:29:26;;;;;;;6.95;4.35;;;;;;;;;;5091837;28;20560;-53
2022/06/29 03:31:52;;;;;;;6.22;4.10;;;15.70;99.90;;;;;;5092052;28;20394;-54
2022/06/29 03:34:18;;;;;;;7.60;4.43;;;16.00;99.90;;;;;;5091633;28;20127;-54
2022/06/29 03:36:44;;;;;;;7.45;4.00;;;;;;;;;;5091549;28;20055;-54
2022/06/29 03:39:09;;;;;;;6.78;4.20;;;15.50;99.90;;;;;;5091788;28;20051;-55
2022/06/29 03:41:35;;;;;;;10.57;4.50;;;15.70;99.90;;;;;;5091666;28;20059;-53
2022/06/29 03:44:02;;;;;;;8.75;4.68;;;16.00;99.90;;;;;;5091642;28;20051;-54
2022/06/29 03:46:28;;;;;;;7.05;4.40;;;;;;;;;;5091360;28;20431;-54
2022/06/29 03:48:54;;;;;;;9.80;4.50;;;16.00;99.90;;;;;;5091387;28;20563;-54
2022/06/29 03:51:19;;;;;;;6.85;4.43;;;15.80;99.90;;;;;;5091517;28;20052;-54
2022/06/29 03:53:45;;;;;;;6.93;4.68;;;15.60;99.90;;;;;;5091561;28;20044;-53
2022/06/29 03:56:11;;;;;;;7.68;4.60;;;15.10;99.90;;;;;;5091250;28;20055;-54
2022/06/29 03:58:37;;;;;;;6.05;4.43;;;16.00;99.90;;;;;;5091921;28;20078;-57
2022/06/29 04:01:04;;;;;;;8.23;4.70;;;15.20;99.90;;;;;;5091505;28;20601;-54
2022/06/29 04:03:30;;;;;;;8.18;4.88;;;15.80;99.90;;;;;;5093640;28;20143;-54
2022/06/29 04:05:56;;;;;;;9.88;4.47;;;15.80;99.90;;;;;;5095677;28;20132;-54
2022/06/29 04:08:21;;;;;;;8.48;4.68;;;15.90;99.90;;;;;;5095713;28;20122;-53
2022/06/29 04:10:47;;;;;;;7.78;4.70;;;;;;;;;;5095799;28;20044;-54
2022/06/29 04:13:13;;;;;;;10.60;4.68;;;15.70;99.90;;;;;;5095461;28;20052;-52
2022/06/29 04:15:39;;;;;;;6.97;4.57;;;16.00;99.90;;;;;;5095504;28;20063;-54
2022/06/29 04:18:05;;;;;;;6.03;4.50;;;15.70;99.90;;;;;;5095328;28;20048;-54
2022/06/29 04:23:15;;;;;;;9.40;4.95;;;15.80;99.90;;;;;;5095529;28;20054;-54
2022/06/29 04:25:41;;;;;;;7.20;4.75;;;16.20;99.90;;;;;;5095193;28;20044;-54
2022/06/29 04:28:06;;;;;;;8.52;4.60;;;16.00;99.90;;;;;;5095332;28;20048;-54
2022/06/29 04:30:33;;;;;;;6.10;4.40;;;15.90;99.90;;;;;;5094998;28;20047;-51
2022/06/29 04:32:59;;;;;;;7.13;4.75;;;16.50;99.90;;;;;;5095234;28;20054;-54
2022/06/29 04:35:24;;;;;;;7.15;4.80;;;16.20;99.90;;;;;;5095210;28;20056;-53
2022/06/29 04:37:50;;;;;;;9.48;4.75;;;16.00;99.90;;;;;;5095196;28;20048;-54
2022/06/29 04:40:16;;;;;;;9.25;5.10;;;16.10;99.90;;;;;;5094880;28;20051;-55
2022/06/29 04:42:41;;;;;;;8.43;5.30;;;16.40;99.90;;;;;;5095176;28;20044;-54
2022/06/29 04:46:19;;;;;;;11.05;4.65;;;16.60;99.90;;;;;;5090618;28;20044;-54
2022/06/29 04:47:53;;;;;;;13.27;5.00;;;;;;;;;;5076779;28;20088;-55
2022/06/29 04:50:19;;;;;;;7.78;4.90;;;16.90;99.90;;;;;;5085641;28;20115;-54
2022/06/29 04:52:45;;;;;;;8.05;5.13;;;;;;;;;;5081213;28;20533;-53
2022/06/29 04:55:11;;;;;;;12.23;4.68;;;17.10;99.90;;;;;;5080753;28;20383;-53
2022/06/29 04:57:37;;;;;;;7.57;4.50;;;18.40;99.90;;;;;;5083038;28;20049;-55
2022/06/29 05:00:03;;;;;;;7.68;4.70;;;18.70;99.90;;;;;;5090893;28;20050;-54
2022/06/29 05:02:29;;;;;;;11.88;4.35;;;19.30;99.90;;;;;;5074671;28;20080;-55
2022/06/29 05:04:55;;;;;;;6.35;4.45;;;21.00;99.90;;;;;;5076069;28;20436;-56
2022/06/29 05:07:20;;;;;;;10.32;4.20;;;21.10;99.90;;;;;;5093591;28;20101;-55
2022/06/29 05:09:46;;;;;;;5.57;4.22;;;22.90;99.90;;;;;;5093166;28;20126;-56
2022/06/29 05:12:12;;;;;;;5.82;4.00;;;22.70;96.70;;;;;;5093601;28;20071;-56
2022/06/29 05:14:37;;;;;;;8.18;4.25;;;23.20;93.40;;;;;;5093461;28;20048;-56
2022/06/29 05:17:03;;;;;;;7.53;4.00;;;23.60;90.70;;;;;;5094147;28;20044;-56
2022/06/29 05:19:29;;;;;;;7.95;3.70;;;23.70;85.70;;;;;;5094075;28;20040;-56
2022/06/29 05:21:54;;;;;;;6.93;4.00;;;24.40;90.80;;;;;;5094301;28;20122;-56
2022/06/29 05:24:20;;;;;;;7.53;3.88;;;24.60;78.40;;;;;;5094323;28;20097;-56
2022/06/29 05:26:46;;;;;;;8.80;3.88;;;25.00;74.70;;;;;;5094521;28;20097;-56
2022/06/29 05:29:11;;;;;;;7.38;3.60;;;26.40;81.00;;;;;;5076130;28;20052;-56
2022/06/29 05:31:37;;;;;;;6.63;3.55;;;26.00;77.80;;;;;;5093899;28;20043;-56
2022/06/29 05:34:03;;;;;;;7.72;3.72;;;27.50;74.00;;;;;;5094272;28;20091;-56
2022/06/29 05:36:29;;;;;;;15.10;3.78;;;27.00;72.20;;;;;;5094234;28;20092;-56
2022/06/29 05:38:54;;;;;;;7.47;3.55;;;27.00;61.30;;;;;;5093854;28;20067;-56
2022/06/29 05:41:20;;;;;;;10.45;4.00;;;27.30;59.60;;;;;;5089004;28;20048;-56
2022/06/29 05:43:49;;;;;;;6.88;3.72;;;27.50;58.10;;;;;;5075691;28;20074;-57
2022/06/29 05:46:15;;;;;;;6.65;3.70;;;27.90;57.20;;;;;;5092953;28;20434;-58
2022/06/29 05:48:41;;;;;;;7.07;3.78;;;28.00;56.10;;;;;;5091868;28;20044;-57
2022/06/29 05:51:07;;;;;;;5.90;4.00;;;28.30;55.20;;;;;;5092002;28;20040;-57
2022/06/29 05:53:32;;;;;;;8.68;4.20;;;28.50;54.40;;;;;;5092462;28;20068;-57
2022/06/29 05:55:58;;;;;;;9.93;5.10;;;29.00;54.00;;;;;;5092361;28;20039;-57
2022/06/29 05:58:24;;;;;;;15.13;5.25;;;29.40;52.70;;;;;;5092568;28;20505;-57
2022/06/29 06:00:50;;;;;;;8.32;4.40;;;29.40;51.80;;;;;;5092342;28;20423;-57
2022/06/29 06:03:17;;;;;;;9.52;4.40;;;29.40;51.40;;;;;;5091803;28;20083;-57
2022/06/29 06:05:43;;;;;;;7.82;4.00;;;;;;;;;;5092269;28;20095;-57
2022/06/29 06:08:09;;;;;;;6.50;3.75;;;30.40;57.30;;;;;;5092077;28;20036;-57
2022/06/29 06:10:35;;;;;;;7.20;4.07;;;30.50;49.50;;;;;;5092041;28;20105;-57
2022/06/29 06:13:02;;;;;;;7.53;3.88;;;30.70;48.40;;;;;;5091932;28;20048;-57
2022/06/29 06:15:29;;;;;;;7.30;3.67;;;31.00;47.70;;;;;;5092219;28;20509;-57
2022/06/29 06:17:55;;;;;;;5.47;3.55;;;30.80;56.60;;;;;;5091634;28;20084;-57
2022/06/29 06:20:20;;;;;;;8.55;3.38;;;30.90;47.20;;;;;;5073809;28;20086;-56
2022/06/29 06:22:46;;;;;;;8.65;3.20;;;31.30;46.80;;;;;;5091478;28;20101;-57
2022/06/29 06:25:12;;;;;;;4.30;3.13;;;31.80;45.90;;;;;;5087538;28;20044;-57
2022/06/29 06:27:37;;;;;;;6.03;3.13;;;32.20;45.30;;;;;;5091292;28;20048;-57
2022/06/29 06:30:03;;;;;;;5.45;2.88;;;32.50;44.50;;;;;;5073652;28;20095;-57
2022/06/29 06:32:29;;;;;;;5.35;2.92;;;32.70;44.10;;;;;;5082131;28;20051;-57
2022/06/29 06:34:54;;;;;;;4.18;2.83;;;33.20;50.90;;;;;;5093042;28;20475;-57
2022/06/29 06:37:20;;;;;;;6.07;3.10;;;33.20;50.40;;;;;;5091881;28;20050;-57
2022/06/29 06:41:21;;;;;;;3.67;2.60;;;33.20;43.00;;;;;;5091335;28;20159;-57
2022/06/29 06:42:31;;;;;;;7.40;2.92;;;33.50;42.90;;;;;;5091239;28;20035;-57
2022/06/29 06:44:57;;;;;;;10.93;2.97;;;33.60;42.40;;;;;;5091359;28;20104;-57
2022/06/29 06:47:22;;;;;;;10.50;2.85;;;33.60;41.90;;;;;;5073078;28;20044;-57
2022/06/29 06:49:48;;;;;;;5.22;2.50;;;33.60;41.70;;;;;;5091624;28;20119;-57
2022/06/29 06:52:16;;;;;;;4.72;2.50;;;33.50;42.00;;;;;;5091042;28;20044;-57
2022/06/29 06:54:44;;;;;;;5.07;2.70;;;33.50;42.00;;;;;;5091305;28;20510;-57
2022/06/29 06:57:10;;;;;;;6.32;2.50;;;33.50;41.80;;;;;;5091413;28;20376;-57
2022/06/29 06:59:37;;;;;;;6.05;2.67;;;33.60;41.70;;;;;;5091385;28;20082;-57
2022/06/29 07:02:02;;;;;;;6.53;2.70;;;32.50;42.60;;;;;;5090967;28;20244;-57
2022/06/29 07:04:28;;;;;;;7.32;2.50;;;31.30;44.50;;;;;;5091151;28;20051;-57
2022/06/29 07:06:54;;;;;;;6.75;2.60;;;30.50;46.30;;;;;;5090765;28;20168;-57
2022/06/29 07:09:19;;;;;;;6.45;2.50;;;30.40;46.60;;;;;;5091274;28;20040;-58
2022/06/29 07:11:45;;;;;;;5.97;2.47;;;30.70;47.10;;;;;;5091009;28;20028;-57
2022/06/29 07:14:11;;;;;;;4.60;2.50;;;30.70;47.00;;;;;;5072463;28;20040;-57
2022/06/29 07:16:36;;;;;;;5.45;2.45;;;29.80;53.60;;;;;;5086725;28;20048;-57
2022/06/29 07:19:02;;;;;;;3.92;2.25;;;30.00;47.80;;;;;;5071712;28;20048;-57
2022/06/29 07:21:28;;;;;;;5.35;2.15;;;29.80;48.50;;;;;;5080653;28;20135;-57
2022/06/29 07:23:58;;;;;;;4.88;2.28;;;29.90;48.90;;;;;;5090786;28;20055;-57
2022/06/29 07:26:24;;;;;;;4.60;2.40;;;29.80;48.80;;;;;;5090787;28;20055;-57
2022/06/29 07:28:50;;;;;;;3.25;2.05;;;30.30;57.10;;;;;;5087800;28;20131;-57
2022/06/29 07:31:16;;;;;;;4.93;2.17;;;29.70;56.40;;;;;;5090749;28;20247;-57
2022/06/29 07:33:41;;;;;;;8.27;2.58;;;29.70;49.50;;;;;;5090543;28;20075;-57
2022/06/29 07:36:07;;;;;;;5.43;2.22;;;29.50;49.40;;;;;;5090285;28;20471;-57
2022/06/29 07:38:34;;;;;;;4.47;2.28;;;29.60;49.50;;;;;;5090042;28;20396;-57
2022/06/29 07:41:01;;;;;;;5.40;2.20;;;30.40;55.50;;;;;;5090725;28;20394;-57
2022/06/29 07:43:28;;;;;;;3.88;2.10;;;29.70;49.30;;;;;;5090462;28;20047;-57
2022/06/29 07:45:57;;;;;;;8.13;2.15;;;29.70;48.50;;;;;;5090399;28;20040;-57
2022/06/29 07:48:24;;;;;;;6.18;2.00;;;29.40;48.80;;;;;;5090593;28;20050;-57
2022/06/29 07:50:50;;;;;;;5.85;1.92;;;;;;;;;;5090181;28;20563;-57
2022/06/29 07:53:15;;;;;;;3.95;2.10;;;29.40;48.30;;;;;;5090328;28;20056;-57
2022/06/29 07:55:44;;;;;;;7.30;1.92;;;29.30;48.90;;;;;;5090221;28;20475;-57
2022/06/29 07:58:13;;;;;;;3.22;1.85;;;28.90;48.70;;;;;;5088366;28;20044;-57
2022/06/29 08:00:40;;;;;;;6.25;2.10;;;28.20;56.40;;;;;;5090239;28;20047;-57
2022/06/29 08:03:06;;;;;;;3.50;1.95;;;28.20;49.60;;;;;;5089581;28;20056;-57
2022/06/29 08:05:32;;;;;;;7.03;2.15;;;27.80;50.20;;;;;;5090320;28;20058;-57
2022/06/29 08:07:57;;;;;;;3.55;2.00;;;27.60;50.40;;;;;;5090157;28;20048;-57
2022/06/29 08:10:23;;;;;;;4.30;1.90;;;27.40;50.60;;;;;;5090343;28;20048;-57
2022/06/29 08:12:49;;;;;;;4.65;1.90;;;27.30;50.80;;;;;;5090555;28;20150;-57
2022/06/29 08:15:17;;;;;;;3.28;1.90;;;27.70;57.30;;;;;;5075341;28;20091;-57
2022/06/29 08:17:44;;;;;;;6.60;2.10;;;27.60;51.30;;;;;;5078005;28;20047;-57
2022/06/29 08:20:11;;;;;;;3.60;2.13;;;27.80;51.20;;;;;;5088353;28;20056;-57
2022/06/29 08:22:36;;;;;;;6.18;2.05;;;27.60;50.70;;;;;;5090150;28;20048;-57
2022/06/29 08:25:03;;;;;;;13.85;1.90;;;27.50;51.20;;;;;;5090472;28;20483;-56
2022/06/29 08:27:30;;;;;;;5.97;2.00;;;27.70;50.90;;;;;;5090378;28;20093;-57
2022/06/29 08:29:56;;;;;;;5.53;2.10;;;28.10;50.80;;;;;;5090494;28;20040;-58
2022/06/29 08:32:22;;;;;;;4.55;1.95;;;28.40;50.00;;;;;;5071814;28;20071;-57
2022/06/29 08:34:48;;;;;;;2.90;1.88;;;28.50;49.90;;;;;;5088631;28;20179;-57
2022/06/29 08:37:14;;;;;;;5.50;2.00;;;28.50;50.60;;;;;;5089921;28;20040;-56
2022/06/29 08:39:40;;;;;;;3.60;1.90;;;28.30;50.30;;;;;;5090058;28;20044;-57
2022/06/29 08:42:06;;;;;;;5.72;2.13;;;28.10;51.00;;;;;;5089388;28;20059;-57
2022/06/29 08:44:33;;;;;;;5.43;2.30;;;27.90;51.20;;;;;;5090160;28;20047;-57
2022/06/29 08:47:06;;;;;;;8.40;2.00;;;28.00;59.40;;;;;;5089665;28;20044;-57
2022/06/29 08:49:33;;;;;;;6.47;2.15;;;28.10;51.60;;;;;;5092267;28;20059;-57
2022/06/29 08:52:03;;;;;;;4.35;2.30;;;27.80;51.40;;;;;;5073461;28;20042;-57
2022/06/29 08:54:31;;;;;;;3.50;2.00;;;27.70;51.70;;;;;;5093703;28;20048;-57
2022/06/29 08:56:58;;;;;;;6.28;2.05;;;27.50;52.00;;;;;;5093564;28;20118;-57
2022/06/29 08:59:24;;;;;;;4.32;2.35;;;27.30;52.90;;;;;;5075430;28;20055;-57
2022/06/29 09:01:52;;;;;;;4.75;2.15;;;27.40;53.90;;;;;;5093388;28;20047;-56
2022/06/29 09:04:18;;;;;;;5.07;2.10;;;27.80;56.50;;;;;;5093629;28;20052;-57
2022/06/29 09:06:45;;;;;;;3.67;2.20;;;27.60;53.50;;;;;;5093621;28;20505;-57
2022/06/29 09:09:12;;;;;;;5.75;2.17;;;27.90;53.50;;;;;;5075479;28;20368;-58
2022/06/29 09:11:42;;;;;;;7.97;2.30;;;28.10;52.80;;;;;;5093680;28;20039;-57
2022/06/29 09:14:11;;;;;;;9.60;2.33;;;28.30;52.70;;;;;;5083048;28;20078;-57
2022/06/29 09:17:02;;;;;;;5.95;2.38;;;28.50;52.30;;;;;;5094249;28;20052;-57
2022/06/29 09:19:48;;;;;;;5.00;2.17;;;28.60;51.60;;;;;;5093007;28;20063;-57
2022/06/29 09:22:14;;;;;;;4.35;2.30;;;28.70;52.10;;;;;;5090482;28;20430;-57
2022/06/29 09:24:41;;;;;;;3.95;2.35;;;28.60;51.80;;;;;;5093231;28;20479;-57
2022/06/29 09:27:11;;;;;;;6.13;2.33;;;28.50;51.70;;;;;;5074665;28;20489;-57
2022/06/29 09:29:40;;;;;;;4.45;2.60;;;28.30;51.60;;;;;;5092859;28;20040;-57
2022/06/29 09:32:07;;;;;;;3.53;2.30;;;28.30;51.90;;;;;;5075037;28;20437;-57
2022/06/29 09:34:39;;;;;;;4.13;2.40;;;28.60;53.10;;;;;;5092823;28;20098;-57
2022/06/29 09:37:10;;;;;;;5.82;2.22;;;28.90;52.00;;;;;;5093107;28;20043;-57
2022/06/29 09:39:41;;;;;;;7.90;2.70;;;28.90;51.60;;;;;;5092594;28;20181;-58
2022/06/29 09:42:20;;;;;;;6.15;2.70;;;29.10;50.90;;;;;;5072312;28;20082;-58
2022/06/29 09:44:47;;;;;;;4.00;2.55;;;29.30;50.40;;;;;;5090126;28;20106;-57
2022/06/29 09:47:15;;;;;;;7.70;2.50;;;29.20;50.80;;;;;;5092721;28;20040;-58
2022/06/29 09:49:43;;;;;;;4.15;2.70;;;29.10;51.10;;;;;;5092402;28;20076;-57
2022/06/29 09:52:10;;;;;;;4.93;2.50;;;28.90;51.10;;;;;;5092252;28;20079;-57
2022/06/29 09:54:45;;;;;;;5.45;2.40;;;28.80;50.90;;;;;;5075129;28;20044;-58
2022/06/29 09:57:12;;;;;;;5.07;2.75;;;28.70;51.40;;;;;;5092175;28;20044;-57
2022/06/29 10:02:43;;;;;;;8.10;2.92;;;28.80;52.20;;;;;;5092015;28;20152;-58
2022/06/29 10:05:13;;;;;;;7.45;2.60;;;28.70;52.50;;;;;;5092514;28;20055;-57
2022/06/29 10:07:59;;;;;;;5.90;2.85;;;28.70;52.40;;;;;;5054537;28;20104;-57
2022/06/29 10:10:26;;;;;;;3.42;2.60;;;28.70;51.70;;;;;;5092031;28;20044;-57
2022/06/29 10:15:44;;;;;;;5.13;2.65;;;28.40;53.40;;;;;;5073936;28;20204;-57
2022/06/29 10:18:38;;;;;;;7.47;2.63;;;28.30;53.70;;;;;;5089811;28;20403;-57
2022/06/29 10:21:23;;;;;;;4.93;2.45;;;28.30;53.90;;;;;;5091333;28;20044;-57
2022/06/29 10:23:52;;;;;;;5.27;2.70;;;28.30;54.20;;;;;;5091748;28;20048;-57
2022/06/29 10:26:35;;;;;;;3.75;2.50;;;28.30;55.10;;;;;;5092087;28;20052;-57
2022/06/29 10:29:11;;;;;;;18.33;3.00;;;28.30;54.80;;;;;;5091894;28;20040;-57
2022/06/29 10:31:53;;;;;;;6.10;2.80;;;28.30;53.70;;;;;;5091246;28;20546;-57
2022/06/29 10:34:31;;;;;;;13.75;3.28;;;28.40;53.30;;;;;;5091618;28;20039;-57
2022/06/29 10:37:05;;;;;;;3.65;2.50;;;28.30;53.40;;;;;;5091951;28;20550;-57
2022/06/29 10:39:43;;;;;;;5.82;2.72;;;28.30;54.40;;;;;;5091606;28;20055;-57
2022/06/29 10:45:18;;;;;;;5.43;2.80;;;28.20;54.40;;;;;;5089733;28;20043;-57
2022/06/29 10:47:48;;;;;;;7.38;3.05;;;28.20;55.30;;;;;;5085068;28;20043;-57
2022/06/29 10:50:13;;;;;;;6.45;3.13;;;28.20;55.10;;;;;;5069788;28;20039;-57
2022/06/29 10:52:40;;;;;;;7.22;2.97;;;28.10;55.10;;;;;;5051468;28;20163;-57
2022/06/29 10:55:07;;;;;;;4.22;2.88;;;28.10;56.30;;;;;;5087434;28;20491;-56
2022/06/29 10:57:38;;;;;;;5.38;2.80;;;28.10;56.60;;;;;;5088859;28;20123;-57
2022/06/29 11:00:09;;;;;;;5.53;2.90;;;28.00;56.80;;;;;;5089908;28;20050;-57
2022/06/29 11:02:37;;;;;;;7.20;3.00;;;28.00;56.60;;;;;;5088171;28;20613;-57
2022/06/29 11:05:04;;;;;;;7.20;3.00;;;28.00;55.80;;;;;;5088083;28;20123;-57
2022/06/29 11:12:58;;;;;;;5.90;2.83;;;27.90;55.50;;;;;;5089891;28;20038;-57
2022/06/29 11:15:41;;;;;;;7.05;2.95;;;27.80;55.30;;;;;;5072950;28;20483;-57
2022/06/29 11:18:12;;;;;;;5.28;3.00;;;27.80;55.40;;;;;;5089555;28;20449;-57
2022/06/29 11:20:39;;;;;;;5.22;3.10;;;27.70;55.10;;;;;;5090655;28;20460;-57
2022/06/29 11:23:13;;;;;;;3.35;2.85;;;27.60;54.90;;;;;;5089871;28;20044;-57
2022/06/29 11:25:41;;;;;;;6.57;3.10;;;27.50;55.50;;;;;;5090514;28;20060;-57
2022/06/29 11:28:07;;;;;;;3.92;3.00;;;27.60;55.60;;;;;;5088441;28;20051;-57
2022/06/29 11:30:33;;;;;;;6.53;3.40;;;27.70;55.60;;;;;;5090690;28;20040;-57
2022/06/29 11:33:10;;;;;;;4.80;3.30;;;27.90;55.30;;;;;;5072749;28;20502;-57
2022/06/29 11:35:38;;;;;;;13.45;3.38;;;28.10;57.00;;;;;;5071052;28;20402;-57
2022/06/29 11:38:05;;;;;;;6.60;3.40;;;28.40;56.20;;;;;;5090531;28;20097;-57
2022/06/29 11:40:42;;;;;;;6.13;3.50;;;28.60;57.60;;;;;;5090163;28;20048;-57
2022/06/29 11:43:16;;;;;;;11.63;3.80;;;28.80;55.30;;;;;;5072092;28;20071;-57
2022/06/29 11:45:45;;;;;;;8.43;3.40;;;28.80;54.70;;;;;;5090724;28;20540;-57
2022/06/29 11:48:17;;;;;;;11.18;3.40;;;28.70;54.40;;;;;;5090207;28;20662;-57
2022/06/29 11:50:44;;;;;;;6.38;3.30;;;28.60;53.90;;;;;;5090161;28;20123;-57
2022/06/29 11:53:10;;;;;;;4.93;3.10;;;28.50;53.80;;;;;;5090324;28;20076;-57
2022/06/29 11:55:46;;;;;;;6.22;3.10;;;28.50;54.20;;;;;;5090244;28;20459;-57
2022/06/29 11:58:15;;;;;;;8.68;3.25;;;28.80;61.50;;;;;;5090383;28;20059;-57
2022/06/29 12:00:43;;;;;;;10.02;3.35;;;28.60;55.40;;;;;;5089717;28;20126;-57
2022/06/29 12:03:11;;;;;;;5.35;3.42;;;28.60;55.20;;;;;;5089947;28;20056;-57
2022/06/29 12:05:37;;;;;;;9.30;3.67;;;28.70;60.90;;;;;;5088942;28;20032;-57
2022/06/29 12:08:03;;;;;;;5.78;3.30;;;28.50;55.20;;;;;;5071989;28;20048;-57
2022/06/29 12:10:28;;;;;;;5.40;3.40;;;28.50;54.80;;;;;;5089940;28;20044;-57
2022/06/29 12:12:54;;;;;;;6.65;3.30;;;28.40;55.50;;;;;;5090108;28;20033;-58
2022/06/29 12:15:20;;;;;;;7.28;3.40;;;28.50;56.30;;;;;;5090012;28;20040;-57
2022/06/29 12:17:45;;;;;;;13.48;3.47;;;28.50;56.60;;;;;;5090427;28;20503;-57
2022/06/29 12:20:12;;;;;;;9.90;3.22;;;28.50;56.70;;;;;;5090042;28;20048;-57
2022/06/29 12:22:38;;;;;;;12.20;3.22;;;28.60;57.10;;;;;;5090171;28;20083;-57
2022/06/29 12:25:04;;;;;;;17.45;4.00;;;28.70;56.80;;;;;;5075326;28;20068;-58
2022/06/29 12:27:29;;;;;;;8.23;3.30;;;28.30;61.30;;;;;;5094379;28;20046;-58
2022/06/29 12:29:55;;;;;;;4.45;3.05;;;28.60;57.10;;;;;;5075747;28;20093;-58
2022/06/29 12:32:21;;;;;;;7.03;3.05;;;28.60;56.80;;;;;;5094082;28;20495;-57
2022/06/29 12:34:46;;;;;;;6.97;3.40;;;28.60;56.70;;;;;;5093835;28;20434;-57
2022/06/29 12:37:13;;;;;;;12.13;3.78;;;28.60;56.10;;;;;;5068913;28;20056;-57
2022/06/29 12:39:38;;;;;;;13.52;3.55;;;28.70;56.50;;;;;;5074747;28;20095;-57
2022/06/29 12:42:04;;;;;;;9.63;3.30;;;28.90;56.40;;;;;;5088691;28;20079;-57
2022/06/29 12:44:30;;;;;;;7.20;3.42;;;28.90;56.20;;;;;;5075246;28;20391;-57
2022/06/29 12:46:56;;;;;;;5.40;3.28;;;29.00;56.30;;;;;;5093943;28;20508;-57
2022/06/29 12:49:22;;;;;;;5.25;3.10;;;29.10;56.40;;;;;;5093578;28;20038;-57
2022/06/29 12:51:48;;;;;;;6.30;3.20;;;28.30;59.40;;;;;;5093502;28;20475;-57
2022/06/29 12:54:14;;;;;;;9.93;3.45;;;29.50;54.90;;;;;;5093666;28;20399;-57
2022/06/29 12:56:40;;;;;;;7.05;3.45;;;29.70;55.10;;;;;;5093401;28;20044;-58
2022/06/29 12:59:05;;;;;;;5.40;3.22;;;29.60;54.30;;;;;;5093560;28;20047;-57
2022/06/29 13:01:31;;;;;;;5.85;3.40;;;29.60;54.70;;;;;;5092824;28;20048;-58
2022/06/29 13:03:57;;;;;;;8.20;3.78;;;29.50;53.70;;;;;;5093178;28;20071;-58
2022/06/29 13:06:22;;;;;;;6.47;3.35;;;29.40;53.10;;;;;;5093194;28;20048;-58
2022/06/29 13:08:48;;;;;;;11.13;3.55;;;29.50;52.80;;;;;;5093532;28;20040;-58
2022/06/29 13:11:14;;;;;;;5.95;3.25;;;29.40;52.80;;;;;;5093215;28;20505;-58
2022/06/29 13:13:40;;;;;;;5.40;3.30;;;29.60;54.20;;;;;;5093052;28;20376;-58
2022/06/29 13:16:07;;;;;;;5.18;3.75;;;29.70;54.60;;;;;;5093140;28;20172;-58
2022/06/29 13:18:34;;;;;;;6.55;3.60;;;29.70;54.20;;;;;;5093800;28;20071;-58
2022/06/29 13:20:59;;;;;;;6.20;3.50;;;29.80;54.20;;;;;;5093471;28;20054;-58